sensor_id;sensor_type;location;lat;lon;timestamp;temperature;humidity
7378;DHT22;3730;50.856;12.776;2023-05-07T00:01:02;11.80;99.90
7378;DHT22;3730;50.856;12.776;2023-05-07T00:03:28;11.60;99.90
7378;DHT22;3730;50.856;12.776;2023-05-07T00:05:54;11.60;99.90
7378;DHT22;3730;50.856;12.776;2023-05-07T00:08:20;11.60;99.90
7378;DHT22;3730;50.856;12.776;2023-05-07T00:10:46;11.60;99.90
7378;DHT22;3730;50.856;12.776;2023-05-07T00:13:12;11.70;99.90
7378;DHT22;3730;50.856;12.776;2023-05-07T00:15:37;11.70;99.90
7378;DHT22;3730;50.856;12.776;2023-05-07T00:18:03;11.70;99.90
7378;DHT22;3730;50.856;12.776;2023-05-07T00:20:29;11.70;99.90
7378;DHT22;3730;50.856;12.776;2023-05-07T00:22:55;11.70;99.90
7378;DHT22;3730;50.856;12.776;2023-05-07T00:25:20;11.70;99.90
7378;DHT22;3730;50.856;12.776;2023-05-07T00:27:46;11.60;99.90
7378;DHT22;3730;50.856;12.776;2023-05-07T00:30:12;11.60;99.90
7378;DHT22;3730;50.856;12.776;2023-05-07T00:32:38;11.50;99.90
7378;DHT22;3730;50.856;12.776;2023-05-07T00:35:05;11.40;99.90
7378;DHT22;3730;50.856;12.776;2023-05-07T00:37:31;11.40;99.90
7378;DHT22;3730;50.856;12.776;2023-05-07T00:39:56;11.40;99.90
7378;DHT22;3730;50.856;12.776;2023-05-07T00:42:22;11.60;99.90
7378;DHT22;3730;50.856;12.776;2023-05-07T00:44:49;11.30;99.90
7378;DHT22;3730;50.856;12.776;2023-05-07T00:47:16;11.40;99.90
7378;DHT22;3730;50.856;12.776;2023-05-07T00:49:42;11.40;99.90
7378;DHT22;3730;50.856;12.776;2023-05-07T00:52:14;11.40;99.90
7378;DHT22;3730;50.856;12.776;2023-05-07T00:54:41;11.40;99.90
7378;DHT22;3730;50.856;12.776;2023-05-07T00:57:06;11.40;99.90
7378;DHT22;3730;50.856;12.776;2023-05-07T00:59:33;11.40;99.90
7378;DHT22;3730;50.856;12.776;2023-05-07T01:01:59;11.40;99.90
7378;DHT22;3730;50.856;12.776;2023-05-07T01:04:25;11.40;99.90
7378;DHT22;3730;50.856;12.776;2023-05-07T01:06:52;11.40;99.90
7378;DHT22;3730;50.856;12.776;2023-05-07T01:09:19;11.60;99.90
7378;DHT22;3730;50.856;12.776;2023-05-07T01:11:46;11.40;99.90
7378;DHT22;3730;50.856;12.776;2023-05-07T01:14:12;11.40;99.90
7378;DHT22;3730;50.856;12.776;2023-05-07T01:16:38;11.30;99.90
7378;DHT22;3730;50.856;12.776;2023-05-07T01:19:06;11.30;99.90
7378;DHT22;3730;50.856;12.776;2023-05-07T01:21:33;11.30;99.90
7378;DHT22;3730;50.856;12.776;2023-05-07T01:24:02;11.30;99.90
7378;DHT22;3730;50.856;12.776;2023-05-07T01:26:28;11.20;99.90
7378;DHT22;3730;50.856;12.776;2023-05-07T01:28:53;11.10;99.90
7378;DHT22;3730;50.856;12.776;2023-05-07T01:31:20;11.10;99.90
7378;DHT22;3730;50.856;12.776;2023-05-07T01:33:46;11.30;99.90
7378;DHT22;3730;50.856;12.776;2023-05-07T01:36:14;11.10;99.90
7378;DHT22;3730;50.856;12.776;2023-05-07T01:38:41;11.30;99.90
7378;DHT22;3730;50.856;12.776;2023-05-07T01:41:07;11.10;99.90
7378;DHT22;3730;50.856;12.776;2023-05-07T01:43:33;11.20;99.90
7378;DHT22;3730;50.856;12.776;2023-05-07T01:46:00;11.30;99.90
7378;DHT22;3730;50.856;12.776;2023-05-07T01:48:26;11.20;99.90
7378;DHT22;3730;50.856;12.776;2023-05-07T01:50:53;11.10;99.90
7378;DHT22;3730;50.856;12.776;2023-05-07T01:53:19;11.10;99.90
7378;DHT22;3730;50.856;12.776;2023-05-07T01:55:44;11.10;99.90
7378;DHT22;3730;50.856;12.776;2023-05-07T01:58:10;11.10;99.90
7378;DHT22;3730;50.856;12.776;2023-05-07T02:00:36;11.00;99.90
7378;DHT22;3730;50.856;12.776;2023-05-07T02:03:02;11.10;99.90
7378;DHT22;3730;50.856;12.776;2023-05-07T02:05:27;10.90;99.90
7378;DHT22;3730;50.856;12.776;2023-05-07T02:07:53;11.40;99.90
7378;DHT22;3730;50.856;12.776;2023-05-07T02:10:18;10.90;99.90
7378;DHT22;3730;50.856;12.776;2023-05-07T02:12:44;11.00;99.90
7378;DHT22;3730;50.856;12.776;2023-05-07T02:15:10;10.90;99.90
7378;DHT22;3730;50.856;12.776;2023-05-07T02:17:39;10.80;99.90
7378;DHT22;3730;50.856;12.776;2023-05-07T02:20:23;10.60;99.90
7378;DHT22;3730;50.856;12.776;2023-05-07T02:22:48;10.50;99.90
7378;DHT22;3730;50.856;12.776;2023-05-07T02:25:14;10.50;99.90
7378;DHT22;3730;50.856;12.776;2023-05-07T02:27:39;10.50;99.90
7378;DHT22;3730;50.856;12.776;2023-05-07T02:30:05;10.70;99.90
7378;DHT22;3730;50.856;12.776;2023-05-07T02:32:31;10.40;99.90
7378;DHT22;3730;50.856;12.776;2023-05-07T02:34:57;10.50;99.90
7378;DHT22;3730;50.856;12.776;2023-05-07T02:37:22;10.40;99.90
7378;DHT22;3730;50.856;12.776;2023-05-07T02:39:48;10.50;99.90
7378;DHT22;3730;50.856;12.776;2023-05-07T02:42:13;10.30;99.90
7378;DHT22;3730;50.856;12.776;2023-05-07T02:44:39;10.30;99.90
7378;DHT22;3730;50.856;12.776;2023-05-07T02:47:04;10.10;99.90
7378;DHT22;3730;50.856;12.776;2023-05-07T02:49:33;10.20;99.90
7378;DHT22;3730;50.856;12.776;2023-05-07T02:51:59;10.20;99.90
7378;DHT22;3730;50.856;12.776;2023-05-07T02:54:24;10.20;99.90
7378;DHT22;3730;50.856;12.776;2023-05-07T02:56:50;10.20;99.90
7378;DHT22;3730;50.856;12.776;2023-05-07T02:59:19;10.30;99.90
7378;DHT22;3730;50.856;12.776;2023-05-07T03:01:44;10.30;99.90
7378;DHT22;3730;50.856;12.776;2023-05-07T03:04:10;10.30;99.90
7378;DHT22;3730;50.856;12.776;2023-05-07T03:06:36;10.70;99.90
7378;DHT22;3730;50.856;12.776;2023-05-07T03:09:02;10.30;99.90
7378;DHT22;3730;50.856;12.776;2023-05-07T03:11:28;10.20;99.90
7378;DHT22;3730;50.856;12.776;2023-05-07T03:13:54;10.20;99.90
7378;DHT22;3730;50.856;12.776;2023-05-07T03:16:20;10.20;99.90
7378;DHT22;3730;50.856;12.776;2023-05-07T03:18:46;10.20;99.90
7378;DHT22;3730;50.856;12.776;2023-05-07T03:21:11;10.20;99.90
7378;DHT22;3730;50.856;12.776;2023-05-07T03:23:37;10.20;99.90
7378;DHT22;3730;50.856;12.776;2023-05-07T03:26:03;10.10;99.90
7378;DHT22;3730;50.856;12.776;2023-05-07T03:28:28;10.10;99.90
7378;DHT22;3730;50.856;12.776;2023-05-07T03:30:54;10.20;99.90
7378;DHT22;3730;50.856;12.776;2023-05-07T03:33:19;10.20;99.90
7378;DHT22;3730;50.856;12.776;2023-05-07T03:35:45;10.30;99.90
7378;DHT22;3730;50.856;12.776;2023-05-07T03:38:11;10.30;99.90
7378;DHT22;3730;50.856;12.776;2023-05-07T03:40:36;10.40;99.90
7378;DHT22;3730;50.856;12.776;2023-05-07T03:43:02;10.40;99.90
7378;DHT22;3730;50.856;12.776;2023-05-07T03:45:28;10.30;99.90
7378;DHT22;3730;50.856;12.776;2023-05-07T03:47:53;10.20;99.90
7378;DHT22;3730;50.856;12.776;2023-05-07T03:50:19;11.10;99.90
7378;DHT22;3730;50.856;12.776;2023-05-07T03:52:45;10.30;99.90
7378;DHT22;3730;50.856;12.776;2023-05-07T03:55:11;10.30;99.90
7378;DHT22;3730;50.856;12.776;2023-05-07T03:57:36;10.30;99.90
7378;DHT22;3730;50.856;12.776;2023-05-07T04:00:02;10.20;99.90
7378;DHT22;3730;50.856;12.776;2023-05-07T04:02:30;10.20;99.90
7378;DHT22;3730;50.856;12.776;2023-05-07T04:04:55;10.20;99.90
7378;DHT22;3730;50.856;12.776;2023-05-07T04:07:21;10.20;99.90
7378;DHT22;3730;50.856;12.776;2023-05-07T04:09:47;11.50;99.90
7378;DHT22;3730;50.856;12.776;2023-05-07T04:12:12;10.60;99.90
7378;DHT22;3730;50.856;12.776;2023-05-07T04:14:38;12.80;99.90
7378;DHT22;3730;50.856;12.776;2023-05-07T04:17:03;10.20;99.90
7378;DHT22;3730;50.856;12.776;2023-05-07T04:19:29;10.10;99.90
7378;DHT22;3730;50.856;12.776;2023-05-07T04:21:55;10.10;99.90
7378;DHT22;3730;50.856;12.776;2023-05-07T04:24:21;10.40;99.90
7378;DHT22;3730;50.856;12.776;2023-05-07T04:26:46;10.20;99.90
7378;DHT22;3730;50.856;12.776;2023-05-07T04:29:12;10.20;99.90
7378;DHT22;3730;50.856;12.776;2023-05-07T04:31:38;10.20;99.90
7378;DHT22;3730;50.856;12.776;2023-05-07T04:34:03;10.20;99.90
7378;DHT22;3730;50.856;12.776;2023-05-07T04:36:30;10.30;99.90
7378;DHT22;3730;50.856;12.776;2023-05-07T04:38:56;10.40;99.90
7378;DHT22;3730;50.856;12.776;2023-05-07T04:41:21;10.30;99.90
7378;DHT22;3730;50.856;12.776;2023-05-07T04:43:47;10.40;99.90
7378;DHT22;3730;50.856;12.776;2023-05-07T04:46:12;10.60;99.90
7378;DHT22;3730;50.856;12.776;2023-05-07T04:48:38;10.50;99.90
7378;DHT22;3730;50.856;12.776;2023-05-07T04:51:04;10.30;99.90
7378;DHT22;3730;50.856;12.776;2023-05-07T04:53:29;10.30;99.90
7378;DHT22;3730;50.856;12.776;2023-05-07T04:55:56;10.60;99.90
7378;DHT22;3730;50.856;12.776;2023-05-07T04:58:22;10.20;99.90
7378;DHT22;3730;50.856;12.776;2023-05-07T05:00:48;10.20;99.90
7378;DHT22;3730;50.856;12.776;2023-05-07T05:03:13;10.60;99.90
7378;DHT22;3730;50.856;12.776;2023-05-07T05:05:39;10.10;99.90
7378;DHT22;3730;50.856;12.776;2023-05-07T05:08:05;10.20;99.90
7378;DHT22;3730;50.856;12.776;2023-05-07T05:10:31;10.10;99.90
7378;DHT22;3730;50.856;12.776;2023-05-07T05:12:56;10.10;99.90
7378;DHT22;3730;50.856;12.776;2023-05-07T05:15:22;10.20;99.90
7378;DHT22;3730;50.856;12.776;2023-05-07T05:17:47;10.30;99.90
7378;DHT22;3730;50.856;12.776;2023-05-07T05:20:13;10.90;99.90
7378;DHT22;3730;50.856;12.776;2023-05-07T05:22:40;10.40;99.90
7378;DHT22;3730;50.856;12.776;2023-05-07T05:25:05;10.10;99.90
7378;DHT22;3730;50.856;12.776;2023-05-07T05:27:31;10.10;99.90
7378;DHT22;3730;50.856;12.776;2023-05-07T05:29:57;10.30;99.90
7378;DHT22;3730;50.856;12.776;2023-05-07T05:32:22;10.10;99.90
7378;DHT22;3730;50.856;12.776;2023-05-07T05:34:48;10.10;99.90
7378;DHT22;3730;50.856;12.776;2023-05-07T05:37:14;10.10;99.90
7378;DHT22;3730;50.856;12.776;2023-05-07T05:39:39;11.50;99.90
7378;DHT22;3730;50.856;12.776;2023-05-07T05:42:05;10.20;99.90
7378;DHT22;3730;50.856;12.776;2023-05-07T05:44:30;10.10;99.90
7378;DHT22;3730;50.856;12.776;2023-05-07T05:46:56;10.10;99.90
7378;DHT22;3730;50.856;12.776;2023-05-07T05:49:24;10.10;99.90
7378;DHT22;3730;50.856;12.776;2023-05-07T05:51:50;10.10;99.90
7378;DHT22;3730;50.856;12.776;2023-05-07T05:54:16;10.10;99.90
7378;DHT22;3730;50.856;12.776;2023-05-07T05:56:42;10.10;99.90
7378;DHT22;3730;50.856;12.776;2023-05-07T05:59:07;10.10;99.90
7378;DHT22;3730;50.856;12.776;2023-05-07T06:01:33;10.10;99.90
7378;DHT22;3730;50.856;12.776;2023-05-07T06:03:59;10.20;99.90
7378;DHT22;3730;50.856;12.776;2023-05-07T06:06:24;11.10;99.90
7378;DHT22;3730;50.856;12.776;2023-05-07T06:08:53;10.30;99.90
7378;DHT22;3730;50.856;12.776;2023-05-07T06:11:19;10.30;99.90
7378;DHT22;3730;50.856;12.776;2023-05-07T06:13:45;10.20;99.90
7378;DHT22;3730;50.856;12.776;2023-05-07T06:16:14;10.20;99.90
7378;DHT22;3730;50.856;12.776;2023-05-07T06:18:40;10.30;99.90
7378;DHT22;3730;50.856;12.776;2023-05-07T06:21:06;10.30;99.90
7378;DHT22;3730;50.856;12.776;2023-05-07T06:23:31;10.20;99.90
7378;DHT22;3730;50.856;12.776;2023-05-07T06:25:57;11.70;99.90
7378;DHT22;3730;50.856;12.776;2023-05-07T06:28:23;10.20;99.90
7378;DHT22;3730;50.856;12.776;2023-05-07T06:30:48;11.40;99.90
7378;DHT22;3730;50.856;12.776;2023-05-07T06:33:15;10.20;99.90
7378;DHT22;3730;50.856;12.776;2023-05-07T06:35:41;10.90;99.90
7378;DHT22;3730;50.856;12.776;2023-05-07T06:38:06;10.20;99.90
7378;DHT22;3730;50.856;12.776;2023-05-07T06:40:32;10.20;99.90
7378;DHT22;3730;50.856;12.776;2023-05-07T06:43:01;10.30;99.90
7378;DHT22;3730;50.856;12.776;2023-05-07T06:45:26;11.40;99.90
7378;DHT22;3730;50.856;12.776;2023-05-07T06:47:52;10.20;99.90
7378;DHT22;3730;50.856;12.776;2023-05-07T06:50:18;10.10;99.90
7378;DHT22;3730;50.856;12.776;2023-05-07T06:52:43;10.20;99.90
7378;DHT22;3730;50.856;12.776;2023-05-07T06:55:09;10.20;99.90
7378;DHT22;3730;50.856;12.776;2023-05-07T06:57:34;10.20;99.90
7378;DHT22;3730;50.856;12.776;2023-05-07T07:00:00;10.30;99.90
7378;DHT22;3730;50.856;12.776;2023-05-07T07:02:26;11.00;99.90
7378;DHT22;3730;50.856;12.776;2023-05-07T07:04:54;10.40;99.90
7378;DHT22;3730;50.856;12.776;2023-05-07T07:07:20;10.30;99.90
7378;DHT22;3730;50.856;12.776;2023-05-07T07:09:45;10.40;99.90
7378;DHT22;3730;50.856;12.776;2023-05-07T07:12:11;10.30;99.90
7378;DHT22;3730;50.856;12.776;2023-05-07T07:14:37;10.30;99.90
7378;DHT22;3730;50.856;12.776;2023-05-07T07:17:02;10.90;99.90
7378;DHT22;3730;50.856;12.776;2023-05-07T07:19:28;10.40;99.90
7378;DHT22;3730;50.856;12.776;2023-05-07T07:21:53;11.20;99.90
7378;DHT22;3730;50.856;12.776;2023-05-07T07:24:22;10.30;99.90
7378;DHT22;3730;50.856;12.776;2023-05-07T07:26:47;10.30;99.90
7378;DHT22;3730;50.856;12.776;2023-05-07T07:29:13;10.40;99.90
7378;DHT22;3730;50.856;12.776;2023-05-07T07:31:39;10.50;99.90
7378;DHT22;3730;50.856;12.776;2023-05-07T07:34:04;10.50;99.90
7378;DHT22;3730;50.856;12.776;2023-05-07T07:36:30;10.60;99.90
7378;DHT22;3730;50.856;12.776;2023-05-07T07:38:55;10.90;99.90
7378;DHT22;3730;50.856;12.776;2023-05-07T07:41:21;11.00;99.90
7378;DHT22;3730;50.856;12.776;2023-05-07T07:43:47;10.60;99.90
7378;DHT22;3730;50.856;12.776;2023-05-07T07:46:15;10.60;99.90
7378;DHT22;3730;50.856;12.776;2023-05-07T07:48:40;10.60;99.90
7378;DHT22;3730;50.856;12.776;2023-05-07T07:51:06;10.70;99.90
7378;DHT22;3730;50.856;12.776;2023-05-07T07:53:32;10.80;99.90
7378;DHT22;3730;50.856;12.776;2023-05-07T07:55:58;10.70;99.90
7378;DHT22;3730;50.856;12.776;2023-05-07T07:58:23;11.70;99.90
7378;DHT22;3730;50.856;12.776;2023-05-07T08:00:50;11.30;99.90
7378;DHT22;3730;50.856;12.776;2023-05-07T08:03:16;10.70;99.90
7378;DHT22;3730;50.856;12.776;2023-05-07T08:05:42;10.80;99.90
7378;DHT22;3730;50.856;12.776;2023-05-07T08:08:08;10.90;99.90
7378;DHT22;3730;50.856;12.776;2023-05-07T08:10:33;11.40;99.90
7378;DHT22;3730;50.856;12.776;2023-05-07T08:13:03;10.80;99.90
7378;DHT22;3730;50.856;12.776;2023-05-07T08:15:30;10.70;99.90
7378;DHT22;3730;50.856;12.776;2023-05-07T08:17:55;10.80;99.90
7378;DHT22;3730;50.856;12.776;2023-05-07T08:20:23;10.80;99.90
7378;DHT22;3730;50.856;12.776;2023-05-07T08:22:48;10.80;99.90
7378;DHT22;3730;50.856;12.776;2023-05-07T08:25:14;10.90;99.90
7378;DHT22;3730;50.856;12.776;2023-05-07T08:27:40;10.90;99.90
7378;DHT22;3730;50.856;12.776;2023-05-07T08:30:06;11.60;99.90
7378;DHT22;3730;50.856;12.776;2023-05-07T08:32:32;11.00;99.90
7378;DHT22;3730;50.856;12.776;2023-05-07T08:34:57;10.90;99.90
7378;DHT22;3730;50.856;12.776;2023-05-07T08:37:23;11.00;99.90
7378;DHT22;3730;50.856;12.776;2023-05-07T08:39:49;11.40;99.90
7378;DHT22;3730;50.856;12.776;2023-05-07T08:42:16;10.90;99.90
7378;DHT22;3730;50.856;12.776;2023-05-07T08:44:48;11.00;99.90
7378;DHT22;3730;50.856;12.776;2023-05-07T08:47:20;11.00;99.90
7378;DHT22;3730;50.856;12.776;2023-05-07T08:49:48;11.10;99.90
7378;DHT22;3730;50.856;12.776;2023-05-07T08:52:15;11.20;99.90
7378;DHT22;3730;50.856;12.776;2023-05-07T08:54:40;11.30;99.90
7378;DHT22;3730;50.856;12.776;2023-05-07T08:57:06;11.30;99.90
7378;DHT22;3730;50.856;12.776;2023-05-07T08:59:32;11.30;99.90
7378;DHT22;3730;50.856;12.776;2023-05-07T09:01:57;11.90;99.90
7378;DHT22;3730;50.856;12.776;2023-05-07T09:04:23;11.40;99.90
7378;DHT22;3730;50.856;12.776;2023-05-07T09:06:49;11.40;99.90
7378;DHT22;3730;50.856;12.776;2023-05-07T09:09:17;11.40;99.90
7378;DHT22;3730;50.856;12.776;2023-05-07T09:11:44;11.50;99.90
7378;DHT22;3730;50.856;12.776;2023-05-07T09:14:09;11.50;99.90
7378;DHT22;3730;50.856;12.776;2023-05-07T09:16:35;11.60;99.90
7378;DHT22;3730;50.856;12.776;2023-05-07T09:19:01;11.60;99.90
7378;DHT22;3730;50.856;12.776;2023-05-07T09:21:26;12.20;99.90
7378;DHT22;3730;50.856;12.776;2023-05-07T09:23:54;11.60;99.90
7378;DHT22;3730;50.856;12.776;2023-05-07T09:26:24;11.70;99.90
7378;DHT22;3730;50.856;12.776;2023-05-07T09:28:50;11.70;99.90
7378;DHT22;3730;50.856;12.776;2023-05-07T09:31:15;11.70;99.90
7378;DHT22;3730;50.856;12.776;2023-05-07T09:33:41;11.70;99.90
7378;DHT22;3730;50.856;12.776;2023-05-07T09:36:08;11.70;99.90
7378;DHT22;3730;50.856;12.776;2023-05-07T09:38:36;11.80;99.90
7378;DHT22;3730;50.856;12.776;2023-05-07T09:41:09;11.80;99.90
7378;DHT22;3730;50.856;12.776;2023-05-07T09:43:37;11.70;99.90
7378;DHT22;3730;50.856;12.776;2023-05-07T09:46:13;11.80;99.90
7378;DHT22;3730;50.856;12.776;2023-05-07T09:48:41;11.80;99.90
7378;DHT22;3730;50.856;12.776;2023-05-07T09:51:22;11.90;99.90
7378;DHT22;3730;50.856;12.776;2023-05-07T09:53:50;11.90;99.90
7378;DHT22;3730;50.856;12.776;2023-05-07T09:56:17;12.00;99.90
7378;DHT22;3730;50.856;12.776;2023-05-07T09:58:45;11.90;99.90
7378;DHT22;3730;50.856;12.776;2023-05-07T10:01:12;12.60;99.90
7378;DHT22;3730;50.856;12.776;2023-05-07T10:03:40;12.00;99.30
7378;DHT22;3730;50.856;12.776;2023-05-07T10:06:08;12.10;99.90
7378;DHT22;3730;50.856;12.776;2023-05-07T10:08:35;12.20;99.60
7378;DHT22;3730;50.856;12.776;2023-05-07T10:11:01;12.70;99.90
7378;DHT22;3730;50.856;12.776;2023-05-07T10:13:28;12.50;99.30
7378;DHT22;3730;50.856;12.776;2023-05-07T10:15:55;12.60;97.40
7378;DHT22;3730;50.856;12.776;2023-05-07T10:18:21;12.60;95.70
7378;DHT22;3730;50.856;12.776;2023-05-07T10:20:57;13.40;94.50
7378;DHT22;3730;50.856;12.776;2023-05-07T10:23:24;12.70;92.00
7378;DHT22;3730;50.856;12.776;2023-05-07T10:25:50;12.60;93.00
7378;DHT22;3730;50.856;12.776;2023-05-07T10:28:17;12.60;93.00
7378;DHT22;3730;50.856;12.776;2023-05-07T10:34:12;12.70;91.90
7378;DHT22;3730;50.856;12.776;2023-05-07T10:36:39;12.80;91.80
7378;DHT22;3730;50.856;12.776;2023-05-07T10:39:05;12.80;91.40
7378;DHT22;3730;50.856;12.776;2023-05-07T10:41:31;12.90;91.40
7378;DHT22;3730;50.856;12.776;2023-05-07T10:43:57;12.90;90.90
7378;DHT22;3730;50.856;12.776;2023-05-07T10:46:26;12.90;87.70
7378;DHT22;3730;50.856;12.776;2023-05-07T10:51:32;13.00;89.10
7378;DHT22;3730;50.856;12.776;2023-05-07T10:56:36;13.20;85.20
7378;DHT22;3730;50.856;12.776;2023-05-07T10:59:31;13.30;87.70
7378;DHT22;3730;50.856;12.776;2023-05-07T11:02:03;13.30;87.00
7378;DHT22;3730;50.856;12.776;2023-05-07T11:04:32;13.50;86.70
7378;DHT22;3730;50.856;12.776;2023-05-07T11:07:23;13.40;84.10
7378;DHT22;3730;50.856;12.776;2023-05-07T12:07:04;13.50;86.30
7378;DHT22;3730;50.856;12.776;2023-05-07T12:09:29;15.00;62.90
7378;DHT22;3730;50.856;12.776;2023-05-07T12:31:33;15.10;62.60
7378;DHT22;3730;50.856;12.776;2023-05-07T12:33:59;15.30;57.10
7378;DHT22;3730;50.856;12.776;2023-05-07T12:36:24;16.00;54.40
7378;DHT22;3730;50.856;12.776;2023-05-07T12:38:51;15.20;55.40
7378;DHT22;3730;50.856;12.776;2023-05-07T12:41:17;15.40;55.40
7378;DHT22;3730;50.856;12.776;2023-05-07T12:46:12;15.30;54.70
7378;DHT22;3730;50.856;12.776;2023-05-07T12:48:45;15.50;52.90
7378;DHT22;3730;50.856;12.776;2023-05-07T12:51:11;15.70;53.60
7378;DHT22;3730;50.856;12.776;2023-05-07T12:53:42;15.70;49.70
7378;DHT22;3730;50.856;12.776;2023-05-07T12:56:08;15.60;49.70
7378;DHT22;3730;50.856;12.776;2023-05-07T12:58:35;15.50;49.10
7378;DHT22;3730;50.856;12.776;2023-05-07T13:01:05;15.60;49.30
7378;DHT22;3730;50.856;12.776;2023-05-07T13:03:35;15.70;50.60
7378;DHT22;3730;50.856;12.776;2023-05-07T13:10:54;15.30;46.70
7378;DHT22;3730;50.856;12.776;2023-05-07T13:13:20;16.30;46.50
7378;DHT22;3730;50.856;12.776;2023-05-07T13:15:47;16.40;47.20
7378;DHT22;3730;50.856;12.776;2023-05-07T13:18:13;16.40;46.20
7378;DHT22;3730;50.856;12.776;2023-05-07T13:20:38;16.40;45.60
7378;DHT22;3730;50.856;12.776;2023-05-07T13:23:04;16.20;45.70
7378;DHT22;3730;50.856;12.776;2023-05-07T13:25:30;16.00;45.60
7378;DHT22;3730;50.856;12.776;2023-05-07T13:27:59;15.80;44.70
7378;DHT22;3730;50.856;12.776;2023-05-07T13:30:24;15.80;46.30
7378;DHT22;3730;50.856;12.776;2023-05-07T13:32:52;15.70;46.30
7378;DHT22;3730;50.856;12.776;2023-05-07T13:35:17;15.50;46.70
7378;DHT22;3730;50.856;12.776;2023-05-07T13:37:43;15.60;46.90
7378;DHT22;3730;50.856;12.776;2023-05-07T13:40:09;15.50;46.50
7378;DHT22;3730;50.856;12.776;2023-05-07T13:42:35;15.40;47.10
7378;DHT22;3730;50.856;12.776;2023-05-07T13:49:55;15.00;46.90
7378;DHT22;3730;50.856;12.776;2023-05-07T13:52:21;14.80;49.30
7378;DHT22;3730;50.856;12.776;2023-05-07T13:54:46;14.80;50.80
7378;DHT22;3730;50.856;12.776;2023-05-07T13:57:12;14.80;50.80
7378;DHT22;3730;50.856;12.776;2023-05-07T13:59:38;15.00;51.80
7378;DHT22;3730;50.856;12.776;2023-05-07T14:02:03;15.30;51.80
7378;DHT22;3730;50.856;12.776;2023-05-07T14:04:30;15.30;48.20
7378;DHT22;3730;50.856;12.776;2023-05-07T14:06:56;15.40;48.50
7378;DHT22;3730;50.856;12.776;2023-05-07T14:09:21;15.50;49.30
7378;DHT22;3730;50.856;12.776;2023-05-07T14:11:47;15.50;49.10
7378;DHT22;3730;50.856;12.776;2023-05-07T14:14:17;15.40;47.60
7378;DHT22;3730;50.856;12.776;2023-05-07T14:16:42;15.50;46.80
7378;DHT22;3730;50.856;12.776;2023-05-07T14:19:08;15.50;47.60
7378;DHT22;3730;50.856;12.776;2023-05-07T14:21:33;15.50;46.70
7378;DHT22;3730;50.856;12.776;2023-05-07T14:23:59;15.60;46.90
7378;DHT22;3730;50.856;12.776;2023-05-07T14:26:25;15.50;47.60
7378;DHT22;3730;50.856;12.776;2023-05-07T14:28:52;15.50;46.90
7378;DHT22;3730;50.856;12.776;2023-05-07T14:31:20;15.50;45.20
7378;DHT22;3730;50.856;12.776;2023-05-07T14:33:46;15.50;45.70
7378;DHT22;3730;50.856;12.776;2023-05-07T14:36:12;15.40;46.10
7378;DHT22;3730;50.856;12.776;2023-05-07T14:38:37;15.40;47.10
7378;DHT22;3730;50.856;12.776;2023-05-07T14:41:03;15.40;48.20
7378;DHT22;3730;50.856;12.776;2023-05-07T14:43:29;15.40;46.60
7378;DHT22;3730;50.856;12.776;2023-05-07T14:45:54;15.40;47.00
7378;DHT22;3730;50.856;12.776;2023-05-07T14:48:20;15.30;47.30
7378;DHT22;3730;50.856;12.776;2023-05-07T14:50:48;15.40;48.00
7378;DHT22;3730;50.856;12.776;2023-05-07T14:53:15;15.40;47.80
7378;DHT22;3730;50.856;12.776;2023-05-07T14:55:40;15.40;47.40
7378;DHT22;3730;50.856;12.776;2023-05-07T14:58:06;15.50;48.00
7378;DHT22;3730;50.856;12.776;2023-05-07T15:00:31;15.70;46.90
7378;DHT22;3730;50.856;12.776;2023-05-07T15:03:10;15.80;46.20
7378;DHT22;3730;50.856;12.776;2023-05-07T15:08:02;16.00;46.40
7378;DHT22;3730;50.856;12.776;2023-05-07T15:10:28;16.30;44.70
7378;DHT22;3730;50.856;12.776;2023-05-07T15:12:54;16.40;44.20
7378;DHT22;3730;50.856;12.776;2023-05-07T15:15:19;16.60;43.60
7378;DHT22;3730;50.856;12.776;2023-05-07T15:17:45;16.60;42.70
7378;DHT22;3730;50.856;12.776;2023-05-07T15:20:11;16.70;41.60
7378;DHT22;3730;50.856;12.776;2023-05-07T15:22:36;16.80;42.10
7378;DHT22;3730;50.856;12.776;2023-05-07T15:25:03;16.80;43.60
7378;DHT22;3730;50.856;12.776;2023-05-07T15:27:30;16.70;42.30
7378;DHT22;3730;50.856;12.776;2023-05-07T15:34:48;16.90;43.20
7378;DHT22;3730;50.856;12.776;2023-05-07T15:37:14;17.10;40.20
7378;DHT22;3730;50.856;12.776;2023-05-07T15:39:39;17.00;39.50
7378;DHT22;3730;50.856;12.776;2023-05-07T15:42:05;17.00;40.00
7378;DHT22;3730;50.856;12.776;2023-05-07T15:44:30;16.80;39.60
7378;DHT22;3730;50.856;12.776;2023-05-07T15:46:59;16.70;41.40
7378;DHT22;3730;50.856;12.776;2023-05-07T15:49:25;16.70;40.20
7378;DHT22;3730;50.856;12.776;2023-05-07T15:51:50;16.70;41.00
7378;DHT22;3730;50.856;12.776;2023-05-07T15:54:16;16.80;41.40
7378;DHT22;3730;50.856;12.776;2023-05-07T15:56:45;16.70;40.80
7378;DHT22;3730;50.856;12.776;2023-05-07T15:59:11;16.70;40.60
7378;DHT22;3730;50.856;12.776;2023-05-07T16:01:37;16.70;40.60
7378;DHT22;3730;50.856;12.776;2023-05-07T16:04:03;16.40;41.50
7378;DHT22;3730;50.856;12.776;2023-05-07T16:06:29;16.40;41.70
7378;DHT22;3730;50.856;12.776;2023-05-07T16:08:55;16.30;42.50
7378;DHT22;3730;50.856;12.776;2023-05-07T16:11:21;16.30;42.30
7378;DHT22;3730;50.856;12.776;2023-05-07T16:13:47;16.20;42.60
7378;DHT22;3730;50.856;12.776;2023-05-07T16:16:12;16.20;43.20
7378;DHT22;3730;50.856;12.776;2023-05-07T16:18:38;16.00;43.10
7378;DHT22;3730;50.856;12.776;2023-05-07T16:21:05;16.00;44.50
7378;DHT22;3730;50.856;12.776;2023-05-07T16:23:30;15.70;44.00
7378;DHT22;3730;50.856;12.776;2023-05-07T16:25:56;15.70;44.70
7378;DHT22;3730;50.856;12.776;2023-05-07T16:28:22;15.60;46.00
7378;DHT22;3730;50.856;12.776;2023-05-07T16:30:48;15.50;46.20
7378;DHT22;3730;50.856;12.776;2023-05-07T16:33:13;15.50;47.30
7378;DHT22;3730;50.856;12.776;2023-05-07T16:47:56;15.40;46.60
7378;DHT22;3730;50.856;12.776;2023-05-07T16:52:49;15.00;49.10
7378;DHT22;3730;50.856;12.776;2023-05-07T16:55:14;14.90;50.40
7378;DHT22;3730;50.856;12.776;2023-05-07T16:57:40;14.90;51.70
7378;DHT22;3730;50.856;12.776;2023-05-07T17:00:06;14.80;51.90
7378;DHT22;3730;50.856;12.776;2023-05-07T17:02:32;14.80;52.30
7378;DHT22;3730;50.856;12.776;2023-05-07T17:07:26;14.80;51.60
7378;DHT22;3730;50.856;12.776;2023-05-07T19:07:01;14.40;53.50
7378;DHT22;3730;50.856;12.776;2023-05-07T19:11:54;11.80;92.20
7378;DHT22;3730;50.856;12.776;2023-05-07T19:14:19;11.50;94.80
7378;DHT22;3730;50.856;12.776;2023-05-07T19:16:45;11.40;94.60
7378;DHT22;3730;50.856;12.776;2023-05-07T19:19:11;11.40;95.50
7378;DHT22;3730;50.856;12.776;2023-05-07T19:21:37;11.30;96.60
7378;DHT22;3730;50.856;12.776;2023-05-07T19:24:02;11.20;97.40
7378;DHT22;3730;50.856;12.776;2023-05-07T19:26:28;11.20;97.40
7378;DHT22;3730;50.856;12.776;2023-05-07T19:28:54;11.70;98.00
7378;DHT22;3730;50.856;12.776;2023-05-07T19:31:22;11.10;99.10
7378;DHT22;3730;50.856;12.776;2023-05-07T19:33:48;11.90;99.50
7378;DHT22;3730;50.856;12.776;2023-05-07T19:36:14;11.10;99.00
7378;DHT22;3730;50.856;12.776;2023-05-07T19:38:42;10.90;99.50
7378;DHT22;3730;50.856;12.776;2023-05-07T19:41:08;10.90;99.90